Croatia — 5IM507 — position and weather

sailwx.info

Track history (hours):
 
Tides and Currents Weather Stations Pressure Air Temp Water Temp Dewpoint Dewpoint Depression Visibility Wind Speed Wind Dir Waves Ship Positions

Croatia

Last reported at 2018-Jun-15 22:24 UTC. Time now 2018-Jun-20 09:43 UTC.
Position N 45°27' E 036°44'.

Length 100 m; draft 3 m.

Type: Cargo ship. MMSI: 677040700.

Date/timePositionNaut miles runAvg speedWind from/ knotsBaromVisibWave heightAir tempDewpointWater temp
2018-Jun-15 22:24N 45°27' E 036°44'4 9.0
2018-Jun-15 22:00N 45°24' E 036°41'4 7.2
2018-Jun-15 21:30N 45°21' E 036°38'4 7.7
2018-Jun-15 21:00N 45°19' E 036°33'4 5.5
2018-Jun-15 20:21N 45°17' E 036°29'3 6.3
2018-Jun-15 19:57N 45°15' E 036°29'2 0.7
2018-Jun-15 16:24N 45°13' E 036°31'0 0.0
2018-Jun-15 15:51N 45°13' E 036°31'0 0.1
2018-Jun-15 15:30N 45°13' E 036°31'0 0.1
2018-Jun-15 14:46N 45°13' E 036°31'0 0.0
2018-Jun-15 14:30N 45°13' E 036°31'0 0.0
2018-Jun-15 12:46N 45°13' E 036°31'0 0.2
2018-Jun-15 12:26N 45°13' E 036°31'0 0.1
2018-Jun-15 11:59N 45°13' E 036°31'254 7.7
2018-Jun-14 03:11N 44°12' E 030°44'2 8.7
2018-Jun-14 02:57N 44°12' E 030°41'4 8.7
2018-Jun-14 02:28N 44°11' E 030°35'4 8.7
2018-Jun-14 02:00N 44°11' E 030°30'4 8.7
2018-Jun-14 01:30N 44°11' E 030°24'4 8.7
2018-Jun-14 01:00N 44°10' E 030°18'4 8.7
2018-Jun-14 00:30N 44°10' E 030°12'4 8.8
2018-Jun-14 00:00N 44°10' E 030°06'5 8.8
2018-Jun-13 23:29N 44°09' E 029°59'5 8.7
2018-Jun-13 22:57N 44°09' E 029°53'4 8.7
2018-Jun-13 22:31N 44°09' E 029°47'4 8.8
2018-Jun-13 22:00N 44°09' E 029°41'5 8.7
2018-Jun-13 21:26N 44°08' E 029°34'16 8.7
2018-Jun-13 19:38N 44°07' E 029°13'2 8.5
2018-Jun-13 19:26N 44°07' E 029°10'4 8.4
2018-Jun-13 19:00N 44°06' E 029°05'4 8.5
2018-Jun-13 18:30N 44°06' E 028°59'4 8.8
2018-Jun-13 18:00N 44°06' E 028°53'4 9.0
2018-Jun-13 17:31N 44°06' E 028°47'4 8.1
2018-Jun-13 17:01N 44°07' E 028°42'3 5.2
2018-Jun-13 16:24N 44°10' E 028°39'0 0.0
2018-Jun-13 16:00N 44°10' E 028°39'0 0.0
2018-Jun-13 15:06N 44°10' E 028°39'0 0.0
2018-Jun-13 15:00N 44°10' E 028°39'0 0.0
2018-Jun-13 14:30N 44°10' E 028°39'0 0.0
2018-Jun-13 14:00N 44°10' E 028°39'0 0.0
2018-Jun-13 13:30N 44°10' E 028°39'0 0.0
2018-Jun-13 12:57N 44°10' E 028°39'0 0.0
2018-Jun-13 12:30N 44°10' E 028°39'0 0.0
2018-Jun-13 12:00N 44°10' E 028°39'0 0.0
2018-Jun-13 11:30N 44°10' E 028°39'0 0.0
2018-Jun-13 11:00N 44°10' E 028°39'0 0.0
2018-Jun-13 10:29N 44°10' E 028°39'0 0.1
2018-Jun-13 09:59N 44°09' E 028°40'2 3.8
2018-Jun-13 09:30N 44°08' E 028°41'3 6.0
2018-Jun-13 09:00N 44°06' E 028°44'1 1.9
2018-Jun-13 08:29N 44°07' E 028°44'0 0.1
2018-Jun-13 07:59N 44°07' E 028°44'0 0.0
2018-Jun-13 07:29N 44°07' E 028°44'0 0.0
2018-Jun-13 06:59N 44°07' E 028°44'0 0.0
2018-Jun-13 06:29N 44°07' E 028°44'0 0.0
2018-Jun-13 05:44N 44°07' E 028°44'0 0.0
2018-Jun-13 05:20N 44°07' E 028°44'0 0.0
2018-Jun-13 04:56N 44°07' E 028°44'0 0.0
2018-Jun-13 04:29N 44°07' E 028°44'0 0.0
2018-Jun-13 03:56N 44°07' E 028°44'0 0.0
2018-Jun-13 03:29N 44°07' E 028°44'0 0.0
2018-Jun-13 02:56N 44°07' E 028°44'0 0.0
2018-Jun-13 02:29N 44°07' E 028°44'0 0.0
2018-Jun-13 01:59N 44°07' E 028°44'0 0.0
2018-Jun-13 01:29N 44°07' E 028°44'0 0.0
2018-Jun-13 00:59N 44°07' E 028°44'0 0.0
2018-Jun-13 00:29N 44°07' E 028°44'0 0.0
2018-Jun-12 23:59N 44°07' E 028°44'0 0.0
2018-Jun-12 23:29N 44°07' E 028°44'0 0.0
2018-Jun-12 22:59N 44°07' E 028°44'0 0.0
2018-Jun-12 22:29N 44°07' E 028°44'0 0.0
2018-Jun-12 21:59N 44°07' E 028°44'0 0.0
2018-Jun-12 21:29N 44°07' E 028°44'0 0.0
2018-Jun-12 20:59N 44°07' E 028°44'0 0.0
2018-Jun-12 20:29N 44°07' E 028°44'0 0.0
2018-Jun-12 19:59N 44°07' E 028°44'0 0.0
2018-Jun-12 19:29N 44°07' E 028°44'0 0.0
2018-Jun-12 18:59N 44°07' E 028°44'0 0.0
2018-Jun-12 18:29N 44°07' E 028°44'0 0.0
2018-Jun-12 17:08N 44°07' E 028°44'0 0.0
2018-Jun-12 16:59N 44°07' E 028°44'0 0.0
2018-Jun-12 16:29N 44°07' E 028°44'0 0.0
2018-Jun-12 15:59N 44°07' E 028°44'0 0.0
2018-Jun-12 15:29N 44°07' E 028°44'0 0.0
2018-Jun-12 14:59N 44°07' E 028°44'0 0.0
2018-Jun-12 14:29N 44°07' E 028°44'0 0.0
2018-Jun-12 13:59N 44°07' E 028°44'0 0.0
2018-Jun-12 13:29N 44°07' E 028°44'0 0.0
2018-Jun-12 12:56N 44°07' E 028°44'0 0.0
2018-Jun-12 12:23N 44°07' E 028°44'0 0.0
2018-Jun-12 11:59N 44°07' E 028°44'0 0.0
2018-Jun-12 11:26N 44°07' E 028°44'0 0.0
2018-Jun-12 10:59N 44°07' E 028°44'0 0.1
2018-Jun-12 10:29N 44°07' E 028°44'0 0.0
2018-Jun-12 09:56N 44°07' E 028°44'0 0.0
2018-Jun-12 08:41N 44°07' E 028°44'0 0.0
2018-Jun-12 08:29N 44°07' E 028°44'0 0.0
2018-Jun-12 07:59N 44°07' E 028°44'0 0.0
2018-Jun-12 07:29N 44°07' E 028°44'0 0.0
2018-Jun-12 06:59N 44°07' E 028°44'0 0.0
2018-Jun-12 06:29N 44°07' E 028°44'0 0.0
2018-Jun-12 05:59N 44°07' E 028°44'0 0.0
2018-Jun-12 05:29N 44°07' E 028°44'0 0.0
2018-Jun-12 04:59N 44°07' E 028°44'0 0.0
2018-Jun-12 04:29N 44°07' E 028°44'0 0.0
2018-Jun-12 03:56N 44°07' E 028°44'0 0.0
2018-Jun-12 03:29N 44°07' E 028°44'0 0.0
2018-Jun-12 02:59N 44°07' E 028°44'0 0.0
2018-Jun-12 02:26N 44°07' E 028°44'0 0.0
2018-Jun-12 01:59N 44°07' E 028°44'0 0.0
2018-Jun-12 01:28N 44°07' E 028°44'0 0.0
2018-Jun-12 00:58N 44°07' E 028°44'0 0.0
2018-Jun-12 00:28N 44°07' E 028°44'0 0.0
2018-Jun-11 23:58N 44°07' E 028°44'0 0.0
2018-Jun-11 23:28N 44°07' E 028°44'0 0.0
2018-Jun-11 22:58N 44°07' E 028°44'0 0.0
2018-Jun-11 22:28N 44°07' E 028°44'0 0.0
2018-Jun-11 21:58N 44°07' E 028°44'0 0.0
2018-Jun-11 21:28N 44°07' E 028°44'0 0.0
2018-Jun-11 20:58N 44°07' E 028°44'0 0.0
2018-Jun-11 20:28N 44°07' E 028°44'0 0.0
2018-Jun-11 19:58N 44°07' E 028°44'0 0.0
2018-Jun-11 19:28N 44°07' E 028°44'0 0.0
2018-Jun-11 18:58N 44°07' E 028°44'0 0.0
2018-Jun-11 18:28N 44°07' E 028°44'0 0.0
2018-Jun-11 17:58N 44°07' E 028°44'0 0.0
2018-Jun-11 17:28N 44°07' E 028°44'0 0.0
2018-Jun-11 16:58N 44°07' E 028°44'0 0.0
2018-Jun-11 16:28N 44°07' E 028°44'0 0.0
2018-Jun-11 15:58N 44°07' E 028°44'0 0.0
2018-Jun-11 15:28N 44°07' E 028°44'0 0.0
2018-Jun-11 14:58N 44°07' E 028°44'0 0.0
2018-Jun-11 14:25N 44°07' E 028°44'0 0.0
2018-Jun-11 13:58N 44°07' E 028°44'0 0.0
2018-Jun-11 13:28N 44°07' E 028°44'0 0.0
2018-Jun-11 12:58N 44°07' E 028°44'0 0.0
2018-Jun-11 12:28N 44°07' E 028°44'0 0.0
2018-Jun-11 11:58N 44°07' E 028°44'0 0.0
2018-Jun-11 11:28N 44°07' E 028°44'0 0.0
2018-Jun-11 10:58N 44°07' E 028°44'0 0.0
2018-Jun-11 10:28N 44°07' E 028°44'0 0.0
2018-Jun-11 09:59N 44°07' E 028°44'0 0.2
2018-Jun-11 09:28N 44°07' E 028°44'1 2.9
2018-Jun-11 09:00N 44°05' E 028°45'5 9.0
2018-Jun-11 08:30N 44°01' E 028°48'4 8.8
2018-Jun-11 08:00N 43°57' E 028°50'4 8.5
2018-Jun-11 07:30N 43°53' E 028°48'4 8.7
2018-Jun-11 07:00N 43°49' E 028°45'4 8.7
2018-Jun-11 06:30N 43°45' E 028°43'4 8.7
2018-Jun-11 06:00N 43°41' E 028°41'4 8.6
2018-Jun-11 05:30N 43°37' E 028°40'4 8.4
2018-Jun-11 05:00N 43°33' E 028°40'4 8.2
2018-Jun-11 04:30N 43°29' E 028°40'4 8.3
2018-Jun-11 04:00N 43°24' E 028°40'4 8.3
2018-Jun-11 03:30N 43°20' E 028°39'4 8.0
2018-Jun-11 03:00N 43°16' E 028°38'4 7.7
2018-Jun-11 02:30N 43°13' E 028°36'4 7.7
2018-Jun-11 02:00N 43°10' E 028°33'4 7.6
2018-Jun-11 01:30N 43°06' E 028°31'4 7.5
2018-Jun-11 01:00N 43°03' E 028°29'4 7.4
2018-Jun-11 00:30N 42°60' E 028°27'4 8.0
2018-Jun-11 00:00N 42°56' E 028°25'4 8.1
2018-Jun-10 23:30N 42°52' E 028°22'4 7.6
2018-Jun-10 23:00N 42°49' E 028°20'4 7.6
2018-Jun-10 22:30N 42°45' E 028°18'4 7.6
2018-Jun-10 22:00N 42°42' E 028°16'4 7.4
2018-Jun-10 21:30N 42°38' E 028°14'4 7.1
2018-Jun-10 21:00N 42°35' E 028°12'4 7.4
2018-Jun-10 20:30N 42°32' E 028°10'4 7.4
2018-Jun-10 20:00N 42°28' E 028°08'3 6.9
2018-Jun-10 19:30N 42°25' E 028°06'4 7.3
2018-Jun-10 18:59N 42°22' E 028°03'4 7.8
2018-Jun-10 18:29N 42°18' E 028°01'4 7.8
2018-Jun-10 17:58N 42°14' E 028°00'89 6.5
2018-Jun-10 04:07N 40°56' E 028°58'4 0.9
2018-Jun-09 23:51N 40°57' E 028°54'0 0.0
2018-Jun-09 23:29N 40°57' E 028°54'  
Track history (hours):
 
Tides and Currents Weather Stations Pressure Air Temp Water Temp Dewpoint Dewpoint Depression Visibility Wind Speed Wind Dir Waves Ship Positions

Croatia

Last reported at 2018-Jun-15 22:24 UTC. Time now 2018-Jun-20 09:43 UTC.
Position N 45°27' E 036°44'.

Length 100 m; draft 3 m.

Type: Cargo ship. MMSI: 677040700.

Date/timePositionNaut miles runAvg speedWind from/ knotsBaromVisibWave heightAir tempDewpointWater temp
2018-Jun-15 22:24N 45°27' E 036°44'4 9.0
2018-Jun-15 22:00N 45°24' E 036°41'4 7.2
2018-Jun-15 21:30N 45°21' E 036°38'4 7.7
2018-Jun-15 21:00N 45°19' E 036°33'4 5.5
2018-Jun-15 20:21N 45°17' E 036°29'3 6.3
2018-Jun-15 19:57N 45°15' E 036°29'2 0.7
2018-Jun-15 16:24N 45°13' E 036°31'0 0.0
2018-Jun-15 15:51N 45°13' E 036°31'0 0.1
2018-Jun-15 15:30N 45°13' E 036°31'0 0.1
2018-Jun-15 14:46N 45°13' E 036°31'0 0.0
2018-Jun-15 14:30N 45°13' E 036°31'0 0.0
2018-Jun-15 12:46N 45°13' E 036°31'0 0.2
2018-Jun-15 12:26N 45°13' E 036°31'0 0.1
2018-Jun-15 11:59N 45°13' E 036°31'254 7.7
2018-Jun-14 03:11N 44°12' E 030°44'2 8.7
2018-Jun-14 02:57N 44°12' E 030°41'4 8.7
2018-Jun-14 02:28N 44°11' E 030°35'4 8.7
2018-Jun-14 02:00N 44°11' E 030°30'4 8.7
2018-Jun-14 01:30N 44°11' E 030°24'4 8.7
2018-Jun-14 01:00N 44°10' E 030°18'4 8.7
2018-Jun-14 00:30N 44°10' E 030°12'4 8.8
2018-Jun-14 00:00N 44°10' E 030°06'5 8.8
2018-Jun-13 23:29N 44°09' E 029°59'5 8.7
2018-Jun-13 22:57N 44°09' E 029°53'4 8.7
2018-Jun-13 22:31N 44°09' E 029°47'4 8.8
2018-Jun-13 22:00N 44°09' E 029°41'5 8.7
2018-Jun-13 21:26N 44°08' E 029°34'16 8.7
2018-Jun-13 19:38N 44°07' E 029°13'2 8.5
2018-Jun-13 19:26N 44°07' E 029°10'4 8.4
2018-Jun-13 19:00N 44°06' E 029°05'4 8.5
2018-Jun-13 18:30N 44°06' E 028°59'4 8.8
2018-Jun-13 18:00N 44°06' E 028°53'4 9.0
2018-Jun-13 17:31N 44°06' E 028°47'4 8.1
2018-Jun-13 17:01N 44°07' E 028°42'3 5.2
2018-Jun-13 16:24N 44°10' E 028°39'0 0.0
2018-Jun-13 16:00N 44°10' E 028°39'0 0.0
2018-Jun-13 15:06N 44°10' E 028°39'0 0.0
2018-Jun-13 15:00N 44°10' E 028°39'0 0.0
2018-Jun-13 14:30N 44°10' E 028°39'0 0.0
2018-Jun-13 14:00N 44°10' E 028°39'0 0.0
2018-Jun-13 13:30N 44°10' E 028°39'0 0.0
2018-Jun-13 12:57N 44°10' E 028°39'0 0.0
2018-Jun-13 12:30N 44°10' E 028°39'0 0.0
2018-Jun-13 12:00N 44°10' E 028°39'0 0.0
2018-Jun-13 11:30N 44°10' E 028°39'0 0.0
2018-Jun-13 11:00N 44°10' E 028°39'0 0.0
2018-Jun-13 10:29N 44°10' E 028°39'0 0.1
2018-Jun-13 09:59N 44°09' E 028°40'2 3.8
2018-Jun-13 09:30N 44°08' E 028°41'3 6.0
2018-Jun-13 09:00N 44°06' E 028°44'1 1.9
2018-Jun-13 08:29N 44°07' E 028°44'0 0.1
2018-Jun-13 07:59N 44°07' E 028°44'0 0.0
2018-Jun-13 07:29N 44°07' E 028°44'0 0.0
2018-Jun-13 06:59N 44°07' E 028°44'0 0.0
2018-Jun-13 06:29N 44°07' E 028°44'0 0.0
2018-Jun-13 05:44N 44°07' E 028°44'0 0.0
2018-Jun-13 05:20N 44°07' E 028°44'0 0.0
2018-Jun-13 04:56N 44°07' E 028°44'0 0.0
2018-Jun-13 04:29N 44°07' E 028°44'0 0.0
2018-Jun-13 03:56N 44°07' E 028°44'0 0.0
2018-Jun-13 03:29N 44°07' E 028°44'0 0.0
2018-Jun-13 02:56N 44°07' E 028°44'0 0.0
2018-Jun-13 02:29N 44°07' E 028°44'0 0.0
2018-Jun-13 01:59N 44°07' E 028°44'0 0.0
2018-Jun-13 01:29N 44°07' E 028°44'0 0.0
2018-Jun-13 00:59N 44°07' E 028°44'0 0.0
2018-Jun-13 00:29N 44°07' E 028°44'0 0.0
2018-Jun-12 23:59N 44°07' E 028°44'0 0.0
2018-Jun-12 23:29N 44°07' E 028°44'0 0.0
2018-Jun-12 22:59N 44°07' E 028°44'0 0.0
2018-Jun-12 22:29N 44°07' E 028°44'0 0.0
2018-Jun-12 21:59N 44°07' E 028°44'0 0.0
2018-Jun-12 21:29N 44°07' E 028°44'0 0.0
2018-Jun-12 20:59N 44°07' E 028°44'0 0.0
2018-Jun-12 20:29N 44°07' E 028°44'0 0.0
2018-Jun-12 19:59N 44°07' E 028°44'0 0.0
2018-Jun-12 19:29N 44°07' E 028°44'0 0.0
2018-Jun-12 18:59N 44°07' E 028°44'0 0.0
2018-Jun-12 18:29N 44°07' E 028°44'0 0.0
2018-Jun-12 17:08N 44°07' E 028°44'0 0.0
2018-Jun-12 16:59N 44°07' E 028°44'0 0.0
2018-Jun-12 16:29N 44°07' E 028°44'0 0.0
2018-Jun-12 15:59N 44°07' E 028°44'0 0.0
2018-Jun-12 15:29N 44°07' E 028°44'0 0.0
2018-Jun-12 14:59N 44°07' E 028°44'0 0.0
2018-Jun-12 14:29N 44°07' E 028°44'0 0.0
2018-Jun-12 13:59N 44°07' E 028°44'0 0.0
2018-Jun-12 13:29N 44°07' E 028°44'0 0.0
2018-Jun-12 12:56N 44°07' E 028°44'0 0.0
2018-Jun-12 12:23N 44°07' E 028°44'0 0.0
2018-Jun-12 11:59N 44°07' E 028°44'0 0.0
2018-Jun-12 11:26N 44°07' E 028°44'0 0.0
2018-Jun-12 10:59N 44°07' E 028°44'0 0.1
2018-Jun-12 10:29N 44°07' E 028°44'0 0.0
2018-Jun-12 09:56N 44°07' E 028°44'0 0.0
2018-Jun-12 08:41N 44°07' E 028°44'0 0.0
2018-Jun-12 08:29N 44°07' E 028°44'0 0.0
2018-Jun-12 07:59N 44°07' E 028°44'0 0.0
2018-Jun-12 07:29N 44°07' E 028°44'0 0.0
2018-Jun-12 06:59N 44°07' E 028°44'0 0.0
2018-Jun-12 06:29N 44°07' E 028°44'0 0.0
2018-Jun-12 05:59N 44°07' E 028°44'0 0.0
2018-Jun-12 05:29N 44°07' E 028°44'0 0.0
2018-Jun-12 04:59N 44°07' E 028°44'0 0.0
2018-Jun-12 04:29N 44°07' E 028°44'0 0.0
2018-Jun-12 03:56N 44°07' E 028°44'0 0.0
2018-Jun-12 03:29N 44°07' E 028°44'0 0.0
2018-Jun-12 02:59N 44°07' E 028°44'0 0.0
2018-Jun-12 02:26N 44°07' E 028°44'0 0.0
2018-Jun-12 01:59N 44°07' E 028°44'0 0.0
2018-Jun-12 01:28N 44°07' E 028°44'0 0.0
2018-Jun-12 00:58N 44°07' E 028°44'0 0.0
2018-Jun-12 00:28N 44°07' E 028°44'0 0.0
2018-Jun-11 23:58N 44°07' E 028°44'0 0.0
2018-Jun-11 23:28N 44°07' E 028°44'0 0.0
2018-Jun-11 22:58N 44°07' E 028°44'0 0.0
2018-Jun-11 22:28N 44°07' E 028°44'0 0.0
2018-Jun-11 21:58N 44°07' E 028°44'0 0.0
2018-Jun-11 21:28N 44°07' E 028°44'0 0.0
2018-Jun-11 20:58N 44°07' E 028°44'0 0.0
2018-Jun-11 20:28N 44°07' E 028°44'0 0.0
2018-Jun-11 19:58N 44°07' E 028°44'0 0.0
2018-Jun-11 19:28N 44°07' E 028°44'0 0.0
2018-Jun-11 18:58N 44°07' E 028°44'0 0.0
2018-Jun-11 18:28N 44°07' E 028°44'0 0.0
2018-Jun-11 17:58N 44°07' E 028°44'0 0.0
2018-Jun-11 17:28N 44°07' E 028°44'0 0.0
2018-Jun-11 16:58N 44°07' E 028°44'0 0.0
2018-Jun-11 16:28N 44°07' E 028°44'0 0.0
2018-Jun-11 15:58N 44°07' E 028°44'0 0.0
2018-Jun-11 15:28N 44°07' E 028°44'0 0.0
2018-Jun-11 14:58N 44°07' E 028°44'0 0.0
2018-Jun-11 14:25N 44°07' E 028°44'0 0.0
2018-Jun-11 13:58N 44°07' E 028°44'0 0.0
2018-Jun-11 13:28N 44°07' E 028°44'0 0.0
2018-Jun-11 12:58N 44°07' E 028°44'0 0.0
2018-Jun-11 12:28N 44°07' E 028°44'0 0.0
2018-Jun-11 11:58N 44°07' E 028°44'0 0.0
2018-Jun-11 11:28N 44°07' E 028°44'0 0.0
2018-Jun-11 10:58N 44°07' E 028°44'0 0.0
2018-Jun-11 10:28N 44°07' E 028°44'0 0.0
2018-Jun-11 09:59N 44°07' E 028°44'0 0.2
2018-Jun-11 09:28N 44°07' E 028°44'1 2.9
2018-Jun-11 09:00N 44°05' E 028°45'5 9.0
2018-Jun-11 08:30N 44°01' E 028°48'4 8.8
2018-Jun-11 08:00N 43°57' E 028°50'4 8.5
2018-Jun-11 07:30N 43°53' E 028°48'4 8.7
2018-Jun-11 07:00N 43°49' E 028°45'4 8.7
2018-Jun-11 06:30N 43°45' E 028°43'4 8.7
2018-Jun-11 06:00N 43°41' E 028°41'4 8.6
2018-Jun-11 05:30N 43°37' E 028°40'4 8.4
2018-Jun-11 05:00N 43°33' E 028°40'4 8.2
2018-Jun-11 04:30N 43°29' E 028°40'4 8.3
2018-Jun-11 04:00N 43°24' E 028°40'4 8.3
2018-Jun-11 03:30N 43°20' E 028°39'4 8.0
2018-Jun-11 03:00N 43°16' E 028°38'4 7.7
2018-Jun-11 02:30N 43°13' E 028°36'4 7.7
2018-Jun-11 02:00N 43°10' E 028°33'4 7.6
2018-Jun-11 01:30N 43°06' E 028°31'4 7.5
2018-Jun-11 01:00N 43°03' E 028°29'4 7.4
2018-Jun-11 00:30N 42°60' E 028°27'4 8.0
2018-Jun-11 00:00N 42°56' E 028°25'4 8.1
2018-Jun-10 23:30N 42°52' E 028°22'4 7.6
2018-Jun-10 23:00N 42°49' E 028°20'4 7.6
2018-Jun-10 22:30N 42°45' E 028°18'4 7.6
2018-Jun-10 22:00N 42°42' E 028°16'4 7.4
2018-Jun-10 21:30N 42°38' E 028°14'4 7.1
2018-Jun-10 21:00N 42°35' E 028°12'4 7.4
2018-Jun-10 20:30N 42°32' E 028°10'4 7.4
2018-Jun-10 20:00N 42°28' E 028°08'3 6.9
2018-Jun-10 19:30N 42°25' E 028°06'4 7.3
2018-Jun-10 18:59N 42°22' E 028°03'4 7.8
2018-Jun-10 18:29N 42°18' E 028°01'4 7.8
2018-Jun-10 17:58N 42°14' E 028°00'89 6.5
2018-Jun-10 04:07N 40°56' E 028°58'4 0.9
2018-Jun-09 23:51N 40°57' E 028°54'0 0.0
2018-Jun-09 23:29N 40°57' E 028°54'  

Dump ship's entire track history